Аэропорт: Казань. Казань

ICAO: UWKD

METAR:
2024-04-22 22:30:00
UWKD 222230Z 31002MPS CAVOK 14/10 Q1016 R29/70D NOSIG RMK QFE751/1001
TAF:
2024-04-22 19:55:00
TAF UWKD 221955Z 2221/2321 10003MPS 9999 SCT020 TX26/2312Z TN11/2302Z 
  TEMPO 2221/2224 SCT030CB 
  BECMG 2305/2306 32005G12MPS BKN016 
  TEMPO 2306/2318 VRB16MPS 3100 -TSRA SQ BKN020CB